Terminal Aerodrome Forecast
Issued by NWS Mt. Holly, NJ

Home | Current Version | Previous Version | Text Only | Print | Product List | Glossary On
Versions: 1 2 3 4 5 6 7 8 9 10 11 12 13 14 15 16
000
FTUS41 KPHI 231700
TAFABE
TAF
KABE 231720Z 2318/2418 23008KT P6SM SCT035
      TEMPO 2322/2402 27015G30KT 2SM TSRA BKN035CB
     FM240200 27005KT P6SM VCSH BKN050
     FM240400 31005KT 5SM BR FEW040 BKN100
     FM241300 35008KT P6SM SCT050 BKN200=

USA.gov is the U.S. government's official web portal to all federal, state and local government web resources and services.